ENRV weather

Reinsvoll Airfield
Reinsvoll, Oppland, Norway

Public forecast

Using degrees Celsius for public forecast. Weather courtesy of forecast.io.

Closest aviation weather report (METAR) to Reinsvoll Airfield

Closest report is Oslo Gardermoen Airport, 32.8 nm (60.7 km) SSE. Retrieved 2020/05/25 20:20 UTC (0 seconds ago):

ENGM 252020Z 19007KT CAVOK 14/07 Q1030 NOSIG

Closest aviation forecast (TAF) to Reinsvoll Airfield

Closest forecast is Oslo Gardermoen Airport, 32.8 nm (60.7 km) SSE. Retrieved 2020/05/25 18:57 UTC (1 hour ago):

TAF ENGM 251700Z 2518/2618 VRB05KT CAVOK BECMG 2606/2608 20010KT TEMPO 2610/2615 20015G25KT